Time;durP1;ratioP1;P1;durP2;ratioP2;P2;SDS_P1;SDS_P2;PMS_P1;PMS_P2;Temp;Humidity;BMP_temperature;BMP_pressure;BME280_temperature;BME280_humidity;BME280_pressure;Samples;Min_cycle;Max_cycle;Signal;HPM_P1;HPM_P2
2023/07/01 00:00:41;;;;;;;7.95;2.00;;;14.30;99.90;;;13.34;97.99;100475.75;4986921;28;20042;-76
2023/07/01 00:03:08;;;;;;;8.43;1.80;;;14.40;99.90;;;13.43;97.81;100480.44;4986699;28;20495;-74
2023/07/01 00:05:33;;;;;;;6.20;1.63;;;14.40;99.90;;;13.50;96.96;100495.00;4972394;28;20546;-74
2023/07/01 00:07:59;;;;;;;5.93;1.65;;;14.40;99.90;;;13.31;96.71;100494.47;4988928;28;20104;-73
2023/07/01 00:10:25;;;;;;;10.55;2.30;;;14.40;99.90;;;13.35;96.58;100501.25;4970369;28;20091;-74
2023/07/01 00:12:52;;;;;;;13.63;2.30;;;14.40;99.90;;;13.39;97.26;100488.69;4986985;28;20058;-74
2023/07/01 00:15:18;;;;;;;9.98;2.10;;;14.40;99.90;;;13.40;98.09;100482.47;4988375;28;20121;-75
2023/07/01 00:17:44;;;;;;;13.60;2.88;;;14.40;99.90;;;13.48;99.57;100474.91;4988808;28;20030;-77
2023/07/01 00:20:14;;;;;;;10.00;2.85;;;14.50;99.90;;;13.56;100.00;100472.59;4952881;28;20911;-78
2023/07/01 00:22:40;;;;;;;10.88;3.22;;;14.50;99.90;;;13.66;100.00;100476.38;4972245;28;20026;-78
2023/07/01 00:25:06;;;;;;;11.10;3.53;;;14.60;99.90;;;13.75;100.00;100470.47;4929705;28;20050;-80
2023/07/01 00:27:34;;;;;;;18.30;3.20;;;14.70;99.90;;;13.71;100.00;100462.84;4917919;28;20026;-80
2023/07/01 00:30:08;;;;;;;13.90;3.35;;;14.70;99.90;;;13.68;100.00;100455.13;4911090;28;20062;-80
2023/07/01 00:32:34;;;;;;;16.10;3.17;;;14.70;99.90;;;13.58;100.00;100441.59;4897147;28;20035;-78
2023/07/01 00:35:00;;;;;;;16.83;3.83;;;14.70;99.90;;;13.67;100.00;100445.47;4890625;28;20167;-79
2023/07/01 00:37:26;;;;;;;17.05;3.83;;;14.70;99.90;;;13.77;100.00;100440.44;4964415;28;20022;-77
2023/07/01 00:40:00;;;;;;;16.55;4.88;;;14.80;99.90;;;13.82;100.00;100441.84;4959283;28;20054;-80
2023/07/01 00:42:26;;;;;;;11.88;3.63;;;14.80;99.90;;;13.88;100.00;100433.50;4974915;28;20030;-77
2023/07/01 00:44:52;;;;;;;9.85;4.60;;;14.90;99.90;;;13.93;100.00;100433.19;4955674;28;20065;-78
2023/07/01 00:47:18;;;;;;;10.85;4.80;;;14.90;99.90;;;13.97;100.00;100424.09;4933116;28;20038;-77
2023/07/01 00:49:45;;;;;;;16.42;4.72;;;14.90;99.90;;;14.03;100.00;100428.16;4986004;28;20043;-78
2023/07/01 00:52:11;;;;;;;15.85;4.65;;;15.00;99.90;;;14.09;100.00;100422.47;4968642;28;20042;-78
2023/07/01 00:54:38;;;;;;;15.48;5.68;;;15.00;99.90;;;14.12;100.00;100419.59;4956779;28;20097;-77
2023/07/01 00:57:04;;;;;;;14.68;5.25;;;15.10;99.90;;;14.12;100.00;100424.91;4978596;28;20034;-77
2023/07/01 00:59:33;;;;;;;10.45;4.90;;;15.10;99.90;;;14.15;100.00;100419.41;4961274;28;20042;-77
2023/07/01 01:02:15;;;;;;;14.70;4.90;;;15.10;99.90;;;14.20;100.00;100430.53;4976464;28;20088;-76
2023/07/01 01:05:01;;;;;;;14.43;5.13;;;15.10;99.90;;;14.22;100.00;100426.00;4985395;28;20530;-77
2023/07/01 01:07:53;;;;;;;18.45;4.80;;;15.10;99.90;;;14.22;100.00;100422.50;4963862;28;20034;-77
2023/07/01 01:10:25;;;;;;;12.85;5.38;;;15.20;99.90;;;14.23;100.00;100421.53;4971375;28;20026;-79
2023/07/01 01:13:00;;;;;;;15.02;6.05;;;15.20;99.90;;;14.26;100.00;100424.00;4953226;28;20436;-77
2023/07/01 01:15:27;;;;;;;16.33;6.53;;;15.20;99.90;;;14.26;100.00;100414.25;4988105;28;20023;-77
2023/07/01 01:17:57;;;;;;;15.32;6.90;;;15.20;99.90;;;14.29;100.00;100413.19;4988259;28;20022;-78
2023/07/01 01:20:23;;;;;;;21.27;7.72;;;15.30;99.90;;;14.31;100.00;100408.63;4983490;28;20039;-77
2023/07/01 01:23:01;;;;;;;15.82;6.68;;;15.20;99.90;;;14.31;100.00;100413.94;4967464;28;20157;-78
2023/07/01 01:26:01;;;;;;;14.00;7.32;;;15.20;99.90;;;14.31;100.00;100403.34;4973666;28;20060;-79
2023/07/01 01:28:30;;;;;;;18.88;5.95;;;15.20;99.90;;;14.28;100.00;100412.34;4986278;28;20045;-76
2023/07/01 01:30:56;;;;;;;17.13;6.40;;;15.20;99.90;;;14.26;100.00;100414.25;4985547;28;20359;-76
2023/07/01 01:33:21;;;;;;;18.73;6.40;;;15.20;99.90;;;14.27;100.00;100407.13;4988828;28;20029;-76
2023/07/01 01:35:47;;;;;;;20.10;7.28;;;15.20;99.90;;;14.24;100.00;100408.19;4978574;28;20113;-78
2023/07/01 01:38:20;;;;;;;;;;;15.20;99.90;;;14.19;100.00;100396.22;4966398;28;20032;-77
2023/07/01 01:40:54;;;;;;;13.48;7.10;;;15.20;99.90;;;14.16;100.00;100400.75;4983074;28;21379;-76
2023/07/01 01:43:28;;;;;;;14.80;7.00;;;15.20;99.90;;;14.16;100.00;100403.41;4992967;28;20062;-77
2023/07/01 01:45:55;;;;;;;26.92;8.90;;;15.10;99.90;;;14.12;100.00;100401.06;4980120;28;20030;-78
2023/07/01 01:48:21;;;;;;;16.33;7.43;;;15.10;99.90;;;14.14;100.00;100401.81;4988770;28;20042;-77
2023/07/01 01:50:53;;;;;;;17.58;7.57;;;15.10;99.90;;;14.11;100.00;100389.63;4971750;28;20053;-77
2023/07/01 01:53:21;;;;;;;17.08;6.45;;;15.10;99.90;;;14.10;100.00;100390.59;4982013;28;20606;-77
2023/07/01 01:55:48;;;;;;;13.55;6.10;;;15.10;99.90;;;14.08;100.00;100389.84;4993709;28;20075;-79
2023/07/01 01:58:15;;;;;;;22.10;6.10;;;15.00;99.90;;;14.04;100.00;100388.34;4988245;28;20042;-76
2023/07/01 02:00:43;;;;;;;17.75;7.05;;;15.00;99.90;;;14.00;100.00;100389.50;4980457;28;20110;-79
2023/07/01 02:03:11;;;;;;;13.35;6.47;;;14.90;99.90;;;13.94;100.00;100387.25;4957483;28;20033;-78
2023/07/01 02:05:37;;;;;;;19.70;7.72;;;14.90;99.90;;;13.89;100.00;100386.72;4966783;28;20144;-77
2023/07/01 02:08:04;;;;;;;17.75;6.95;;;14.90;99.90;;;13.84;100.00;100387.00;4994028;28;20034;-78
2023/07/01 02:10:32;;;;;;;17.98;6.72;;;14.80;99.90;;;13.81;100.00;100389.03;4981732;28;20042;-77
2023/07/01 02:12:59;;;;;;;15.80;7.05;;;14.80;99.90;;;13.75;100.00;100380.50;4988955;28;20491;-81
2023/07/01 02:15:25;;;;;;;17.02;7.07;;;14.70;99.90;;;13.71;100.00;100381.69;4954868;28;20038;-76
2023/07/01 02:17:52;;;;;;;23.42;7.13;;;14.70;99.90;;;13.68;100.00;100376.59;4961352;28;20060;-77
2023/07/01 02:20:18;;;;;;;22.05;9.40;;;14.70;99.90;;;13.66;100.00;100373.19;4989452;28;21284;-78
2023/07/01 02:22:44;;;;;;;19.58;7.22;;;14.60;99.90;;;13.66;100.00;100373.19;4968343;28;20402;-77
2023/07/01 02:25:10;;;;;;;22.15;6.97;;;14.60;99.90;;;13.66;100.00;100367.06;4991042;28;20058;-77
2023/07/01 02:27:36;;;;;;;;;;;14.60;99.90;;;13.59;100.00;100358.69;4998520;28;20125;-76
2023/07/01 02:30:03;;;;;;;28.23;7.82;;;14.60;99.90;;;13.58;100.00;100362.25;4995937;28;20374;-77
2023/07/01 02:32:29;;;;;;;29.33;9.45;;;14.60;99.90;;;13.60;100.00;100364.81;4978235;28;20120;-78
2023/07/01 02:34:55;;;;;;;29.45;9.90;;;14.50;99.90;;;13.57;100.00;100354.44;4968763;28;20529;-76
2023/07/01 02:37:21;;;;;;;26.73;12.10;;;14.50;99.90;;;13.56;100.00;100358.84;4965257;28;20038;-77
2023/07/01 02:39:47;;;;;;;33.40;10.82;;;14.50;99.90;;;13.54;100.00;100351.03;4990686;28;20042;-79
2023/07/01 02:42:19;;;;;;;39.63;12.60;;;14.50;99.90;;;13.50;100.00;100361.91;4977558;28;20043;-79
2023/07/01 02:44:46;;;;;;;28.08;10.95;;;14.50;99.90;;;13.48;100.00;100353.25;4981818;28;20026;-79
2023/07/01 02:47:14;;;;;;;22.05;9.23;;;14.50;99.90;;;13.46;100.00;100360.41;4964472;28;20041;-79
2023/07/01 02:49:40;;;;;;;33.10;13.70;;;14.40;99.90;;;13.41;100.00;100355.44;4992471;28;20042;-79
2023/07/01 02:52:10;;;;;;;29.60;12.68;;;14.40;99.90;;;13.36;100.00;100346.94;4992296;28;20077;-78
2023/07/01 02:54:40;;;;;;;25.83;12.85;;;14.30;99.90;;;13.29;100.00;100348.28;4994778;28;20505;-78
2023/07/01 02:57:08;;;;;;;32.42;13.63;;;14.30;99.90;;;13.28;100.00;100344.78;4991925;28;20045;-79
2023/07/01 02:59:34;;;;;;;47.80;14.98;;;14.40;99.90;;;13.28;100.00;100347.44;4992198;28;20034;-76
2023/07/01 03:02:00;;;;;;;38.45;15.77;;;14.30;99.90;;;13.27;100.00;100339.56;4968130;28;20038;-80
2023/07/01 03:04:26;;;;;;;32.45;15.38;;;14.30;99.90;;;13.24;100.00;100339.72;4977506;28;20108;-78
2023/07/01 03:06:51;;;;;;;;;;;14.30;99.90;;;13.12;100.00;100336.09;4995664;28;20033;-79
2023/07/01 03:09:17;;;;;;;41.97;14.80;;;14.20;99.90;;;13.11;100.00;100334.41;5012123;28;19971;-76
2023/07/01 03:11:43;;;;;;;;;;;14.20;99.90;;;13.07;100.00;100331.09;4988499;28;20133;-79
2023/07/01 03:14:09;;;;;;;36.15;13.70;;;14.20;99.90;;;13.12;100.00;100334.28;4997616;28;19920;-79
2023/07/01 03:16:35;;;;;;;46.92;15.95;;;14.20;99.90;;;13.18;100.00;100330.41;4983622;28;20038;-76
2023/07/01 03:19:00;;;;;;;;;;;14.20;99.90;;;13.23;100.00;100333.59;4992155;28;20062;-79
2023/07/01 03:21:27;;;;;;;46.08;15.93;;;14.30;99.90;;;13.26;100.00;100338.72;5016980;28;19945;-81
2023/07/01 03:23:53;;;;;;;20.75;10.00;;;14.30;99.90;;;13.37;100.00;100332.78;4993883;28;22184;-78
2023/07/01 03:26:18;;;;;;;35.28;12.55;;;14.40;99.90;;;13.48;100.00;100330.28;4955848;28;20034;-79
2023/07/01 03:28:45;;;;;;;20.88;11.35;;;14.50;99.90;;;13.61;100.00;100325.03;4981560;28;20049;-78
2023/07/01 03:31:11;;;;;;;14.40;8.73;;;14.50;99.90;;;13.71;100.00;100323.50;4977569;28;20192;-77
2023/07/01 03:33:36;;;;;;;23.00;13.27;;;14.70;99.90;;;13.81;100.00;100328.16;4987526;28;20050;-76
2023/07/01 03:36:03;;;;;;;41.83;16.58;;;14.70;99.90;;;13.84;100.00;100318.19;4989491;28;20033;-79
2023/07/01 03:38:29;;;;;;;26.23;14.05;;;14.70;99.90;;;13.83;100.00;100315.69;4978587;28;20034;-79
2023/07/01 03:40:54;;;;;;;27.60;14.25;;;14.80;99.90;;;13.87;100.00;100320.66;4996270;28;20118;-78
2023/07/01 03:43:20;;;;;;;29.55;13.43;;;14.90;99.90;;;14.00;100.00;100322.50;4993961;28;20604;-80
2023/07/01 03:45:46;;;;;;;18.30;11.02;;;15.00;99.90;;;14.20;100.00;100318.50;4981733;28;20045;-77
2023/07/01 03:48:12;;;;;;;16.98;9.52;;;15.10;99.90;;;14.32;100.00;100323.78;4989737;28;20188;-79
2023/07/01 03:50:38;;;;;;;24.80;12.90;;;15.30;99.90;;;14.47;100.00;100326.31;4994764;28;20701;-79
2023/07/01 03:53:03;;;;;;;20.77;9.70;;;15.30;99.90;;;14.50;100.00;100315.53;4974741;28;24912;-79
2023/07/01 03:55:29;;;;;;;27.25;10.50;;;15.30;99.90;;;14.54;100.00;100322.31;4982612;28;20452;-79
2023/07/01 03:57:55;;;;;;;;;;;15.30;99.90;;;14.54;100.00;100306.41;4970213;28;20113;-79
2023/07/01 04:00:21;;;;;;;19.17;10.48;;;15.30;99.90;;;14.58;100.00;100302.63;4982511;28;19970;-79
2023/07/01 04:02:50;;;;;;;24.20;9.98;;;15.40;99.90;;;14.65;100.00;100297.75;4992563;28;20034;-79
2023/07/01 04:05:17;;;;;;;23.73;11.13;;;15.50;99.90;;;14.79;100.00;100297.59;4988202;28;20033;-78
2023/07/01 04:07:46;;;;;;;22.92;10.90;;;15.60;99.90;;;14.90;100.00;100296.84;4973844;28;20034;-79
2023/07/01 04:10:12;;;;;;;23.25;9.13;;;15.70;99.90;;;15.02;100.00;100297.78;4981967;28;20638;-78
2023/07/01 04:12:39;;;;;;;18.45;9.95;;;15.90;99.90;;;15.32;100.00;100297.34;4977524;28;20386;-78
2023/07/01 04:15:09;;;;;;;25.08;10.88;;;16.10;99.90;;;15.66;100.00;100295.72;4982772;28;20042;-79
2023/07/01 04:17:39;;;;;;;23.48;9.43;;;16.50;99.90;;;16.15;100.00;100296.47;4979153;28;20495;-77
2023/07/01 04:20:06;;;;;;;22.33;9.52;;;16.80;99.90;;;16.43;100.00;100300.50;4974817;28;20077;-79
2023/07/01 04:22:36;;;;;;;19.27;8.52;;;17.40;99.90;;;17.35;98.23;100301.16;4970839;28;20030;-79
2023/07/01 04:25:03;;;;;;;21.48;7.53;;;18.30;99.90;;;18.51;91.33;100311.03;4998330;28;20054;-79
2023/07/01 04:27:30;;;;;;;22.80;7.70;;;19.00;99.90;;;19.10;85.94;100297.94;4984917;28;20038;-79
2023/07/01 04:29:56;;;;;;;25.80;7.35;;;19.50;99.90;;;19.52;81.98;100287.00;4992897;28;20069;-78
2023/07/01 04:32:23;;;;;;;36.92;6.57;;;19.70;99.90;;;19.38;80.08;100288.28;4974308;28;20042;-80
2023/07/01 04:34:49;;;;;;;36.78;7.20;;;19.60;99.90;;;19.11;80.87;100288.94;4975462;28;20035;-78
2023/07/01 04:37:15;;;;;;;34.35;7.65;;;19.40;99.90;;;18.94;81.95;100290.41;4973061;28;20384;-79
2023/07/01 04:39:42;;;;;;;45.92;9.27;;;19.30;99.90;;;18.73;83.52;100279.81;4976592;28;20494;-80
2023/07/01 04:42:07;;;;;;;39.55;9.02;;;19.30;99.90;;;18.81;84.12;100280.00;4994174;28;20030;-80
2023/07/01 04:44:33;;;;;;;43.28;8.65;;;19.30;99.90;;;18.87;84.56;100284.78;4983041;28;20414;-78
2023/07/01 04:46:59;;;;;;;30.58;8.40;;;19.40;99.90;;;19.17;84.45;100285.72;4980390;28;20461;-80
2023/07/01 04:49:25;;;;;;;;;;;19.40;99.90;;;20.01;83.46;100282.53;4991786;28;21038;-79
2023/07/01 04:51:52;;;;;;;31.70;8.35;;;20.20;99.90;;;20.58;80.32;100282.53;4989903;28;19965;-79
2023/07/01 04:54:19;;;;;;;25.90;7.10;;;21.10;99.90;;;21.93;75.52;100288.00;4991215;28;20031;-79
2023/07/01 04:56:44;;;;;;;19.33;6.50;;;21.50;99.90;;;21.78;74.33;100290.38;4963252;28;20042;-78
2023/07/01 04:59:10;;;;;;;27.45;6.75;;;21.60;99.90;;;21.33;74.87;100269.84;4958759;28;20486;-79
2023/07/01 05:01:36;;;;;;;;;;;21.50;99.90;;;20.90;75.41;100274.06;4974240;28;20127;-80
2023/07/01 05:04:02;;;;;;;18.63;7.18;;;21.10;99.90;;;20.44;77.36;100267.78;5017096;28;19913;-78
2023/07/01 05:06:27;;;;;;;;;;;21.10;99.90;;;20.10;78.59;100268.28;4989880;28;20049;-80
2023/07/01 05:08:53;;;;;;;29.10;6.68;;;20.60;99.90;;;19.81;80.20;100255.84;4994022;28;19926;-79
2023/07/01 05:11:20;;;;;;;33.60;7.15;;;20.40;99.90;;;19.63;81.43;100262.81;4995598;28;20494;-79
2023/07/01 05:13:46;;;;;;;24.92;7.18;;;20.20;99.90;;;19.61;81.76;100270.13;4986742;28;20042;-81
2023/07/01 05:16:12;;;;;;;27.90;7.25;;;20.20;99.90;;;19.77;81.65;100272.28;4969244;28;20030;-80
2023/07/01 05:18:37;;;;;;;;;;;20.20;99.90;;;19.62;81.80;100262.00;4975920;28;20184;-78
2023/07/01 05:21:03;;;;;;;17.52;6.70;;;20.10;99.90;;;19.98;81.07;100269.47;4995582;28;19948;-80
2023/07/01 05:23:29;;;;;;;;;;;20.10;99.90;;;20.08;80.29;100267.59;4976437;28;20042;-79
2023/07/01 05:25:55;;;;;;;22.55;6.45;;;20.30;99.90;;;19.85;80.31;100269.75;4993102;28;20622;-79
2023/07/01 05:28:21;;;;;;;19.83;6.85;;;20.20;99.90;;;19.76;80.51;100274.13;4992499;28;20033;-79
2023/07/01 05:30:47;;;;;;;28.90;6.93;;;20.20;99.90;;;20.29;79.95;100278.94;4994546;28;20034;-79
2023/07/01 05:33:13;;;;;;;14.75;6.68;;;20.50;99.90;;;21.46;77.58;100281.03;4964793;28;20251;-79
2023/07/01 05:35:39;;;;;;;18.33;5.72;;;21.70;99.90;;;24.85;67.19;100294.31;4983215;28;20574;-78
2023/07/01 05:38:09;;;;;;;19.30;5.32;;;23.70;99.90;;;27.80;59.60;100317.56;4982347;28;20084;-80
2023/07/01 05:40:35;;;;;;;16.15;5.13;;;25.90;99.90;;;30.41;53.30;100323.91;4992004;28;20534;-79
2023/07/01 05:43:01;;;;;;;11.23;4.65;;;28.10;99.90;;;32.55;48.87;100336.31;4992308;28;20035;-80
2023/07/01 05:45:27;;;;;;;15.00;4.55;;;29.90;99.90;;;34.10;45.65;100352.09;4977070;28;20029;-79
2023/07/01 05:47:53;;;;;;;15.05;4.43;;;31.40;99.90;;;35.17;43.53;100366.56;4989135;28;20033;-78
2023/07/01 05:50:18;;;;;;;12.73;3.75;;;32.30;99.90;;;33.98;43.88;100355.88;4989670;28;20042;-79
2023/07/01 05:52:44;;;;;;;15.02;4.60;;;32.00;99.30;;;31.66;46.72;100350.84;4975223;28;20098;-78
2023/07/01 05:55:10;;;;;;;7.80;3.72;;;31.80;99.30;;;30.97;48.25;100357.00;4988817;28;20659;-79
2023/07/01 05:57:36;;;;;;;13.27;3.75;;;30.70;99.90;;;31.68;46.46;100362.34;4990262;28;20050;-79
2023/07/01 06:00:05;;;;;;;14.75;3.97;;;30.60;99.40;;;31.44;46.63;100358.50;4993741;28;20062;-79
2023/07/01 06:02:31;;;;;;;10.82;3.30;;;30.60;99.80;;;31.07;47.21;100350.06;4988472;28;20042;-78
2023/07/01 06:04:56;;;;;;;11.55;3.80;;;30.40;99.70;;;31.60;46.81;100357.16;4975211;28;20038;-78
2023/07/01 06:07:23;;;;;;;8.00;3.10;;;30.80;99.70;;;33.12;43.83;100364.22;4990806;28;20487;-78
2023/07/01 06:09:49;;;;;;;13.60;2.97;;;31.50;98.80;;;33.21;43.58;100359.28;4991779;28;20064;-78
2023/07/01 06:12:15;;;;;;;10.43;3.00;;;32.10;98.30;;;33.92;42.67;100371.31;4991452;28;20039;-79
2023/07/01 06:14:42;;;;;;;17.30;3.20;;;32.30;97.10;;;32.88;43.39;100357.75;4988698;28;20117;-79
2023/07/01 06:17:08;;;;;;;12.07;3.00;;;32.00;96.60;;;32.75;43.15;100364.19;4981473;28;20042;-79
2023/07/01 06:19:34;;;;;;;13.02;3.00;;;32.30;96.90;;;34.23;41.14;100377.53;4991402;28;20046;-78
2023/07/01 06:22:00;;;;;;;14.13;2.50;;;33.00;95.60;;;35.27;39.57;100380.47;4973532;28;20121;-80
2023/07/01 06:24:25;;;;;;;16.92;2.30;;;34.00;94.90;;;36.36;37.73;100392.28;4992474;28;20182;-79
2023/07/01 06:26:51;;;;;;;18.15;2.33;;;34.70;92.80;;;35.87;37.90;100379.09;4988510;28;20034;-79
2023/07/01 06:29:17;;;;;;;12.20;2.40;;;34.50;92.00;;;34.31;38.99;100366.28;4971293;28;20050;-78
2023/07/01 06:31:43;;;;;;;6.25;2.00;;;33.60;91.80;;;32.44;41.36;100357.78;4990225;28;20093;-79
2023/07/01 06:34:15;;;;;;;7.90;1.90;;;32.40;92.90;;;30.99;44.13;100333.97;4987760;28;20129;-79
2023/07/01 06:36:41;;;;;;;7.47;2.08;;;31.10;93.60;;;29.73;45.76;100324.09;4987397;28;20173;-79
2023/07/01 06:39:07;;;;;;;12.43;2.83;;;30.10;95.10;;;28.71;48.13;100312.22;4990807;28;20088;-78
2023/07/01 06:41:33;;;;;;;10.88;2.47;;;29.20;96.10;;;27.89;50.07;100304.78;4973511;28;20026;-78
2023/07/01 06:43:59;;;;;;;8.30;2.42;;;28.40;97.20;;;27.37;51.09;100295.91;4989169;28;20043;-79
2023/07/01 06:46:27;;;;;;;18.75;2.72;;;27.80;98.30;;;27.07;52.21;100285.16;4989063;28;20061;-78
2023/07/01 06:48:52;;;;;;;5.95;2.20;;;27.40;99.10;;;26.80;53.49;100289.38;4973371;28;20428;-78
2023/07/01 06:51:18;;;;;;;9.90;2.45;;;27.20;99.50;;;26.70;53.09;100278.06;4994000;28;20121;-78
2023/07/01 06:53:44;;;;;;;11.68;2.80;;;27.00;99.80;;;26.57;53.37;100274.16;4990884;28;20503;-80
2023/07/01 06:56:10;;;;;;;6.03;2.03;;;26.90;99.90;;;26.62;53.14;100276.28;4971147;28;20068;-79
2023/07/01 06:58:36;;;;;;;13.90;2.30;;;26.80;99.90;;;26.55;53.19;100272.63;4991765;28;20098;-79
2023/07/01 07:01:03;;;;;;;11.90;2.42;;;26.70;99.50;;;26.60;52.02;100270.22;4988012;28;20048;-79
2023/07/01 07:03:29;;;;;;;11.43;2.20;;;26.80;99.40;;;26.77;52.09;100263.59;4991568;28;20046;-78
2023/07/01 07:05:55;;;;;;;9.52;2.30;;;26.80;98.90;;;26.91;51.47;100266.47;4968738;28;20086;-78
2023/07/01 07:08:27;;;;;;;14.13;2.20;;;26.80;97.80;;;26.67;50.61;100268.44;4990184;28;20026;-78
2023/07/01 07:10:52;;;;;;;8.02;1.90;;;26.80;98.30;;;26.79;50.68;100264.25;4975647;28;20057;-78
2023/07/01 07:13:18;;;;;;;7.47;1.80;;;26.90;99.00;;;26.84;51.34;100257.44;4974262;28;20089;-78
2023/07/01 07:15:44;;;;;;;6.93;2.08;;;27.00;98.70;;;26.95;50.92;100259.66;4991508;28;20117;-78
2023/07/01 07:18:10;;;;;;;12.05;1.90;;;27.10;99.10;;;27.11;51.04;100259.44;4984499;28;20022;-78
2023/07/01 07:20:39;;;;;;;9.15;1.90;;;27.30;98.10;;;27.55;49.13;100255.75;4960360;28;20461;-79
2023/07/01 07:23:07;;;;;;;8.68;2.17;;;27.50;97.10;;;27.44;49.15;100258.97;4974378;28;20505;-80
2023/07/01 07:25:33;;;;;;;10.73;2.00;;;27.60;98.10;;;27.48;49.81;100252.16;4983217;28;20143;-77
2023/07/01 07:28:01;;;;;;;14.48;1.95;;;27.50;97.60;;;27.09;49.81;100253.38;4969516;28;20684;-76
2023/07/01 07:30:27;;;;;;;16.75;2.40;;;27.10;96.30;;;26.36;49.97;100237.06;4985974;28;20038;-77
2023/07/01 07:32:52;;;;;;;5.95;1.90;;;26.70;96.90;;;25.81;50.99;100223.97;4986233;28;20462;-76
2023/07/01 07:35:19;;;;;;;16.80;2.30;;;26.30;98.00;;;25.52;52.22;100221.00;4986027;28;20156;-76
2023/07/01 07:37:45;;;;;;;6.90;1.77;;;26.10;98.10;;;25.61;52.02;100226.34;4969726;28;20121;-76
2023/07/01 07:40:11;;;;;;;14.23;2.40;;;26.20;99.40;;;26.10;51.62;100223.22;4992803;28;20037;-78
2023/07/01 07:42:37;;;;;;;11.40;2.10;;;26.30;98.60;;;26.25;51.75;100226.75;4983757;28;20376;-79
2023/07/01 07:45:04;;;;;;;13.43;2.15;;;26.40;99.40;;;26.23;52.12;100218.00;4988556;28;20983;-77
2023/07/01 07:47:30;;;;;;;12.80;2.40;;;26.50;98.90;;;26.12;52.93;100213.06;4988517;28;20042;-77
2023/07/01 07:49:56;;;;;;;7.05;2.13;;;26.50;99.90;;;26.16;54.04;100209.81;4969419;28;20061;-77
2023/07/01 07:52:22;;;;;;;14.40;2.60;;;26.50;99.60;;;26.29;53.23;100211.84;4970111;28;20035;-77
2023/07/01 07:54:48;;;;;;;6.13;2.50;;;26.60;99.40;;;26.31;52.53;100204.41;4990465;28;20042;-77
2023/07/01 07:57:13;;;;;;;4.68;2.17;;;26.60;98.00;;;26.22;51.23;100200.16;4986972;28;20042;-77
2023/07/01 07:59:43;;;;;;;9.40;1.95;;;26.60;98.60;;;26.25;51.10;100196.22;4988639;28;20447;-77
2023/07/01 08:02:09;;;;;;;14.20;2.10;;;26.50;96.70;;;26.14;49.38;100200.22;4985979;28;20422;-77
2023/07/01 08:04:36;;;;;;;11.80;2.10;;;26.50;97.20;;;26.15;50.34;100197.31;4987615;28;21830;-78
2023/07/01 08:07:02;;;;;;;10.77;2.08;;;26.40;97.80;;;26.01;50.62;100183.88;4989181;28;20042;-77
2023/07/01 08:09:29;;;;;;;7.63;2.35;;;26.30;97.70;;;25.88;51.54;100182.63;4970914;28;20778;-78
2023/07/01 08:11:58;;;;;;;6.60;2.00;;;26.20;98.00;;;25.73;51.49;100176.34;4987455;28;20388;-77
2023/07/01 08:14:27;;;;;;;5.25;2.20;;;26.10;98.10;;;25.68;51.74;100167.97;4974504;28;20123;-76
2023/07/01 08:16:54;;;;;;;6.20;1.60;;;26.00;98.00;;;25.63;51.57;100165.00;4987885;28;20033;-77
2023/07/01 08:19:20;;;;;;;14.68;2.15;;;26.00;96.00;;;25.39;49.82;100164.19;4985773;28;20046;-77
2023/07/01 08:21:46;;;;;;;12.10;2.35;;;25.80;95.60;;;25.34;48.89;100169.28;4971287;28;20038;-77
2023/07/01 08:24:12;;;;;;;10.82;2.20;;;25.80;97.30;;;25.43;50.27;100164.69;4988318;28;20023;-79
2023/07/01 08:26:38;;;;;;;9.23;2.03;;;25.80;97.50;;;25.54;50.87;100156.97;4987782;28;20493;-77
2023/07/01 08:29:07;;;;;;;10.02;2.13;;;25.90;97.00;;;25.82;49.74;100164.47;4996717;28;20133;-77
2023/07/01 08:31:33;;;;;;;15.02;2.17;;;26.10;96.60;;;26.10;48.54;100158.47;4979256;28;20045;-81
2023/07/01 08:33:59;;;;;;;9.02;2.10;;;;;;;26.35;49.46;100153.56;4928034;28;20026;-80
2023/07/01 08:36:26;;;;;;;10.40;2.00;;;26.60;96.30;;;26.59;48.09;100163.28;4970304;28;20084;-80
2023/07/01 08:38:54;;;;;;;11.35;2.45;;;26.60;96.80;;;26.43;49.46;100156.19;4981918;28;20058;-81
2023/07/01 08:41:24;;;;;;;9.70;2.22;;;26.60;96.50;;;26.10;49.44;100144.97;4935048;28;20118;-79
2023/07/01 08:43:57;;;;;;;5.22;1.83;;;26.50;96.00;;;25.80;50.05;100147.63;4981499;28;20050;-80
2023/07/01 08:46:24;;;;;;;5.80;1.92;;;26.30;96.80;;;25.85;49.64;100139.81;4977459;28;20038;-80
2023/07/01 08:48:50;;;;;;;8.05;1.60;;;26.20;96.70;;;25.95;49.38;100128.78;4973205;28;20121;-81
2023/07/01 08:51:31;;;;;;;11.52;1.80;;;26.30;96.40;;;26.04;50.19;100127.66;4946114;28;20038;-80
2023/07/01 08:54:00;;;;;;;18.17;2.30;;;26.40;97.20;;;26.29;49.19;100127.38;4963206;28;20022;-79
2023/07/01 08:56:31;;;;;;;7.20;1.50;;;26.60;95.60;;;26.54;47.82;100133.25;4935497;28;20026;-79
2023/07/01 08:58:58;;;;;;;9.15;1.90;;;26.70;95.50;;;26.67;47.49;100128.03;4981272;28;20111;-75
2023/07/01 09:01:24;;;;;;;6.03;1.50;;;26.90;95.00;;;26.64;47.14;100133.00;4986192;28;20503;-76
2023/07/01 09:03:51;;;;;;;9.15;2.13;;;26.90;94.60;;;26.57;47.13;100139.16;4974688;28;20041;-75
2023/07/01 09:06:20;;;;;;;9.05;2.05;;;26.90;94.90;;;26.70;47.09;100116.88;4976417;28;20031;-75
2023/07/01 09:08:52;;;;;;;7.32;1.75;;;26.90;94.30;;;26.71;46.60;100123.94;4974160;28;20411;-75
2023/07/01 09:11:19;;;;;;;21.60;2.15;;;26.90;92.60;;;26.62;44.26;100127.78;4988629;28;20068;-75
2023/07/01 09:13:45;;;;;;;20.10;1.77;;;26.90;91.70;;;26.54;43.98;100133.25;4991517;28;20036;-75
2023/07/01 09:16:12;;;;;;;10.48;1.73;;;26.90;91.60;;;26.56;43.35;100139.34;4989765;28;20606;-75
2023/07/01 09:18:43;;;;;;;15.35;2.00;;;26.80;91.50;;;26.45;43.37;100135.22;4990956;28;20026;-75
2023/07/01 09:21:19;;;;;;;6.38;1.75;;;26.70;91.90;;;26.24;43.94;100132.47;4977085;28;20046;-75
2023/07/01 09:23:48;;;;;;;9.48;1.90;;;26.70;92.10;;;26.25;44.27;100123.38;4972190;28;20036;-75
2023/07/01 09:26:19;;;;;;;4.50;1.50;;;26.50;92.00;;;26.17;44.33;100127.00;4991719;28;20034;-75
2023/07/01 09:28:49;;;;;;;14.35;1.90;;;26.50;92.60;;;26.32;44.76;100129.69;4977836;28;20113;-75
2023/07/01 09:31:18;;;;;;;8.40;2.05;;;26.70;92.00;;;26.51;43.46;100136.34;4971561;28;20041;-75
2023/07/01 09:34:02;;;;;;;9.75;1.80;;;26.70;91.80;;;26.52;43.12;100132.59;4992465;28;20101;-75
2023/07/01 09:36:33;;;;;;;14.85;2.10;;;26.90;91.50;;;26.80;43.58;100124.63;4990778;28;23069;-75
2023/07/01 09:39:00;;;;;;;11.73;2.05;;;27.10;91.70;;;27.08;42.70;100127.41;4992368;28;20138;-75
2023/07/01 09:41:30;;;;;;;68.35;8.05;;;27.30;92.90;;;27.28;45.00;100111.41;4990791;28;20490;-76
2023/07/01 09:44:00;;;;;;;25.40;1.98;;;27.50;90.80;;;27.25;41.87;100124.47;4990998;28;20054;-76
2023/07/01 09:46:50;;;;;;;14.70;2.30;;;27.50;90.00;;;26.87;41.15;100127.41;4993291;28;20061;-76
2023/07/01 09:49:18;;;;;;;13.57;2.42;;;27.30;89.80;;;26.67;42.08;100124.50;4974129;28;20044;-76
2023/07/01 09:51:49;;;;;;;8.02;2.17;;;27.20;90.20;;;26.68;42.14;100110.00;4991808;28;20030;-76
2023/07/01 09:54:38;;;;;;;9.30;1.85;;;27.20;90.70;;;27.03;41.90;100120.94;4991777;28;20539;-75
2023/07/01 09:57:08;;;;;;;13.98;2.35;;;27.40;91.30;;;27.24;41.08;100120.13;4990971;28;20042;-76
2023/07/01 09:59:34;;;;;;;11.10;1.95;;;27.50;89.80;;;27.34;41.04;100112.47;4990580;28;20458;-75
2023/07/01 10:02:02;;;;;;;12.20;2.42;;;27.60;90.20;;;27.51;41.23;100113.03;4994231;28;20038;-76
2023/07/01 10:04:29;;;;;;;13.00;2.05;;;27.70;91.20;;;27.68;41.34;100111.69;4989935;28;20046;-75
2023/07/01 10:06:56;;;;;;;5.97;1.77;;;27.90;91.30;;;27.95;42.27;100110.00;4992856;28;20526;-76
2023/07/01 10:09:23;;;;;;;13.55;2.35;;;28.10;90.10;;;27.91;40.87;100111.44;4992408;28;20117;-75